sensor_id;sensor_type;location;lat;lon;timestamp;temperature;humidity
10010;DHT22;5044;48.652;9.250;2022-07-29T00:02:05;20.30;99.90
10010;DHT22;5044;48.652;9.250;2022-07-29T00:04:36;20.30;99.90
10010;DHT22;5044;48.652;9.250;2022-07-29T00:07:03;20.30;99.90
10010;DHT22;5044;48.652;9.250;2022-07-29T00:09:31;20.20;99.90
10010;DHT22;5044;48.652;9.250;2022-07-29T00:11:59;20.10;99.90
10010;DHT22;5044;48.652;9.250;2022-07-29T00:14:26;20.10;99.90
10010;DHT22;5044;48.652;9.250;2022-07-29T00:16:54;20.20;99.90
10010;DHT22;5044;48.652;9.250;2022-07-29T00:19:20;20.20;99.90
10010;DHT22;5044;48.652;9.250;2022-07-29T00:21:49;20.10;99.90
10010;DHT22;5044;48.652;9.250;2022-07-29T00:24:16;20.20;99.90
10010;DHT22;5044;48.652;9.250;2022-07-29T00:26:42;20.20;99.90
10010;DHT22;5044;48.652;9.250;2022-07-29T00:29:09;20.20;99.90
10010;DHT22;5044;48.652;9.250;2022-07-29T00:31:36;20.10;99.90
10010;DHT22;5044;48.652;9.250;2022-07-29T00:34:03;20.00;99.90
10010;DHT22;5044;48.652;9.250;2022-07-29T00:36:31;19.90;99.90
10010;DHT22;5044;48.652;9.250;2022-07-29T00:38:58;19.90;99.90
10010;DHT22;5044;48.652;9.250;2022-07-29T00:41:27;20.00;99.90
10010;DHT22;5044;48.652;9.250;2022-07-29T00:43:54;19.90;99.90
10010;DHT22;5044;48.652;9.250;2022-07-29T00:46:21;19.80;99.90
10010;DHT22;5044;48.652;9.250;2022-07-29T00:48:47;19.70;99.90
10010;DHT22;5044;48.652;9.250;2022-07-29T00:51:15;19.50;99.90
10010;DHT22;5044;48.652;9.250;2022-07-29T00:53:44;19.60;99.90
10010;DHT22;5044;48.652;9.250;2022-07-29T00:56:13;19.60;99.90
10010;DHT22;5044;48.652;9.250;2022-07-29T00:58:40;19.60;99.90
10010;DHT22;5044;48.652;9.250;2022-07-29T01:01:10;19.60;99.90
10010;DHT22;5044;48.652;9.250;2022-07-29T01:03:37;19.50;99.90
10010;DHT22;5044;48.652;9.250;2022-07-29T01:06:04;19.50;99.90
10010;DHT22;5044;48.652;9.250;2022-07-29T01:08:31;19.50;99.90
10010;DHT22;5044;48.652;9.250;2022-07-29T01:10:59;19.40;99.90
10010;DHT22;5044;48.652;9.250;2022-07-29T01:13:29;19.40;99.90
10010;DHT22;5044;48.652;9.250;2022-07-29T01:16:02;19.40;99.90
10010;DHT22;5044;48.652;9.250;2022-07-29T01:18:31;19.40;99.90
10010;DHT22;5044;48.652;9.250;2022-07-29T01:21:16;19.40;99.90
10010;DHT22;5044;48.652;9.250;2022-07-29T01:23:58;19.40;99.90
10010;DHT22;5044;48.652;9.250;2022-07-29T01:26:39;19.30;99.90
10010;DHT22;5044;48.652;9.250;2022-07-29T01:29:12;19.30;99.90
10010;DHT22;5044;48.652;9.250;2022-07-29T01:31:45;19.20;99.90
10010;DHT22;5044;48.652;9.250;2022-07-29T01:34:19;19.20;99.90
10010;DHT22;5044;48.652;9.250;2022-07-29T01:36:50;19.20;99.90
10010;DHT22;5044;48.652;9.250;2022-07-29T01:39:19;19.20;99.90
10010;DHT22;5044;48.652;9.250;2022-07-29T01:41:56;19.20;99.90
10010;DHT22;5044;48.652;9.250;2022-07-29T01:44:31;19.10;99.90
10010;DHT22;5044;48.652;9.250;2022-07-29T01:47:00;19.10;99.90
10010;DHT22;5044;48.652;9.250;2022-07-29T01:49:30;19.00;99.90
10010;DHT22;5044;48.652;9.250;2022-07-29T01:52:00;19.00;99.90
10010;DHT22;5044;48.652;9.250;2022-07-29T01:54:32;18.90;99.90
10010;DHT22;5044;48.652;9.250;2022-07-29T01:57:01;18.80;99.90
10010;DHT22;5044;48.652;9.250;2022-07-29T01:59:33;18.70;99.90
10010;DHT22;5044;48.652;9.250;2022-07-29T02:02:01;18.60;99.90
10010;DHT22;5044;48.652;9.250;2022-07-29T02:04:29;18.60;99.90
10010;DHT22;5044;48.652;9.250;2022-07-29T02:07:00;18.60;99.90
10010;DHT22;5044;48.652;9.250;2022-07-29T02:09:28;18.60;99.90
10010;DHT22;5044;48.652;9.250;2022-07-29T02:11:57;18.60;99.90
10010;DHT22;5044;48.652;9.250;2022-07-29T02:14:27;18.60;99.90
10010;DHT22;5044;48.652;9.250;2022-07-29T02:16:57;18.60;99.90
10010;DHT22;5044;48.652;9.250;2022-07-29T02:19:26;18.60;99.90
10010;DHT22;5044;48.652;9.250;2022-07-29T02:21:54;18.50;99.90
10010;DHT22;5044;48.652;9.250;2022-07-29T02:24:23;18.60;99.90
10010;DHT22;5044;48.652;9.250;2022-07-29T02:26:52;18.60;99.90
10010;DHT22;5044;48.652;9.250;2022-07-29T02:29:21;18.50;99.90
10010;DHT22;5044;48.652;9.250;2022-07-29T02:31:50;18.40;99.90
10010;DHT22;5044;48.652;9.250;2022-07-29T02:34:20;18.50;99.90
10010;DHT22;5044;48.652;9.250;2022-07-29T02:36:48;18.50;99.90
10010;DHT22;5044;48.652;9.250;2022-07-29T02:39:17;18.50;99.90
10010;DHT22;5044;48.652;9.250;2022-07-29T02:41:47;18.50;99.90
10010;DHT22;5044;48.652;9.250;2022-07-29T02:44:17;18.50;99.90
10010;DHT22;5044;48.652;9.250;2022-07-29T02:46:49;18.50;99.90
10010;DHT22;5044;48.652;9.250;2022-07-29T02:49:23;18.50;99.90
10010;DHT22;5044;48.652;9.250;2022-07-29T02:51:59;18.50;99.90
10010;DHT22;5044;48.652;9.250;2022-07-29T02:54:39;18.50;99.90
10010;DHT22;5044;48.652;9.250;2022-07-29T02:57:20;18.50;99.90
10010;DHT22;5044;48.652;9.250;2022-07-29T02:59:49;18.40;99.90
10010;DHT22;5044;48.652;9.250;2022-07-29T03:02:18;18.40;99.90
10010;DHT22;5044;48.652;9.250;2022-07-29T03:04:49;18.50;99.90
10010;DHT22;5044;48.652;9.250;2022-07-29T03:07:18;18.40;99.90
10010;DHT22;5044;48.652;9.250;2022-07-29T03:09:47;18.40;99.90
10010;DHT22;5044;48.652;9.250;2022-07-29T03:12:16;18.40;99.90
10010;DHT22;5044;48.652;9.250;2022-07-29T03:14:43;18.40;99.90
10010;DHT22;5044;48.652;9.250;2022-07-29T03:17:11;18.30;99.90
10010;DHT22;5044;48.652;9.250;2022-07-29T03:19:39;18.20;99.90
10010;DHT22;5044;48.652;9.250;2022-07-29T03:22:07;18.20;99.90
10010;DHT22;5044;48.652;9.250;2022-07-29T03:24:35;18.10;99.90
10010;DHT22;5044;48.652;9.250;2022-07-29T03:27:03;18.10;99.90
10010;DHT22;5044;48.652;9.250;2022-07-29T03:29:31;18.10;99.90
10010;DHT22;5044;48.652;9.250;2022-07-29T03:31:58;18.00;99.90
10010;DHT22;5044;48.652;9.250;2022-07-29T03:34:27;18.00;99.90
10010;DHT22;5044;48.652;9.250;2022-07-29T03:36:58;17.90;99.90
10010;DHT22;5044;48.652;9.250;2022-07-29T03:39:29;18.00;99.90
10010;DHT22;5044;48.652;9.250;2022-07-29T03:41:59;17.90;99.90
10010;DHT22;5044;48.652;9.250;2022-07-29T03:44:31;17.90;99.90
10010;DHT22;5044;48.652;9.250;2022-07-29T03:46:59;17.90;99.90
10010;DHT22;5044;48.652;9.250;2022-07-29T03:49:27;17.80;99.90
10010;DHT22;5044;48.652;9.250;2022-07-29T03:52:01;17.80;99.90
10010;DHT22;5044;48.652;9.250;2022-07-29T03:54:30;17.80;99.90
10010;DHT22;5044;48.652;9.250;2022-07-29T03:56:59;17.80;99.90
10010;DHT22;5044;48.652;9.250;2022-07-29T03:59:27;17.80;99.90
10010;DHT22;5044;48.652;9.250;2022-07-29T04:01:59;17.70;99.90
10010;DHT22;5044;48.652;9.250;2022-07-29T04:04:32;17.60;99.90
10010;DHT22;5044;48.652;9.250;2022-07-29T04:06:59;17.60;99.90
10010;DHT22;5044;48.652;9.250;2022-07-29T04:09:26;17.60;99.90
10010;DHT22;5044;48.652;9.250;2022-07-29T04:11:55;17.60;99.90
10010;DHT22;5044;48.652;9.250;2022-07-29T04:14:23;17.60;99.90
10010;DHT22;5044;48.652;9.250;2022-07-29T04:16:50;17.60;99.90
10010;DHT22;5044;48.652;9.250;2022-07-29T04:19:18;17.60;99.90
10010;DHT22;5044;48.652;9.250;2022-07-29T04:21:48;17.50;99.90
10010;DHT22;5044;48.652;9.250;2022-07-29T04:24:15;17.50;99.90
10010;DHT22;5044;48.652;9.250;2022-07-29T04:26:45;17.50;99.90
10010;DHT22;5044;48.652;9.250;2022-07-29T04:29:16;17.50;99.90
10010;DHT22;5044;48.652;9.250;2022-07-29T04:31:43;17.50;99.90
10010;DHT22;5044;48.652;9.250;2022-07-29T04:34:12;17.50;99.90
10010;DHT22;5044;48.652;9.250;2022-07-29T04:36:38;17.50;99.90
10010;DHT22;5044;48.652;9.250;2022-07-29T04:39:05;17.50;99.90
10010;DHT22;5044;48.652;9.250;2022-07-29T04:41:32;17.40;99.90
10010;DHT22;5044;48.652;9.250;2022-07-29T04:44:06;17.50;99.90
10010;DHT22;5044;48.652;9.250;2022-07-29T04:46:35;17.50;99.90
10010;DHT22;5044;48.652;9.250;2022-07-29T04:49:05;17.50;99.90
10010;DHT22;5044;48.652;9.250;2022-07-29T04:51:36;17.50;99.90
10010;DHT22;5044;48.652;9.250;2022-07-29T04:54:03;17.50;99.90
10010;DHT22;5044;48.652;9.250;2022-07-29T04:56:33;17.50;99.90
10010;DHT22;5044;48.652;9.250;2022-07-29T04:59:01;17.60;99.90
10010;DHT22;5044;48.652;9.250;2022-07-29T05:01:29;17.60;99.90
10010;DHT22;5044;48.652;9.250;2022-07-29T05:03:57;17.60;99.90
10010;DHT22;5044;48.652;9.250;2022-07-29T05:06:24;17.70;99.90
10010;DHT22;5044;48.652;9.250;2022-07-29T05:08:52;17.70;99.90
10010;DHT22;5044;48.652;9.250;2022-07-29T05:11:19;17.80;99.90
10010;DHT22;5044;48.652;9.250;2022-07-29T05:13:47;17.80;99.90
10010;DHT22;5044;48.652;9.250;2022-07-29T05:16:29;17.90;99.90
10010;DHT22;5044;48.652;9.250;2022-07-29T05:18:57;18.00;99.90
10010;DHT22;5044;48.652;9.250;2022-07-29T05:21:29;18.00;99.90
10010;DHT22;5044;48.652;9.250;2022-07-29T05:23:56;18.00;99.90
10010;DHT22;5044;48.652;9.250;2022-07-29T05:26:23;18.00;99.90
10010;DHT22;5044;48.652;9.250;2022-07-29T05:28:50;18.10;99.90
10010;DHT22;5044;48.652;9.250;2022-07-29T05:31:17;18.20;99.90
10010;DHT22;5044;48.652;9.250;2022-07-29T05:33:48;18.30;99.90
10010;DHT22;5044;48.652;9.250;2022-07-29T05:36:17;18.40;99.90
10010;DHT22;5044;48.652;9.250;2022-07-29T05:38:44;18.40;99.90
10010;DHT22;5044;48.652;9.250;2022-07-29T05:41:10;18.60;99.90
10010;DHT22;5044;48.652;9.250;2022-07-29T05:43:39;18.70;99.90
10010;DHT22;5044;48.652;9.250;2022-07-29T05:46:11;18.80;99.90
10010;DHT22;5044;48.652;9.250;2022-07-29T05:48:41;19.00;99.90
10010;DHT22;5044;48.652;9.250;2022-07-29T05:51:10;19.20;99.90
10010;DHT22;5044;48.652;9.250;2022-07-29T05:53:38;19.40;99.90
10010;DHT22;5044;48.652;9.250;2022-07-29T05:56:06;19.60;99.90
10010;DHT22;5044;48.652;9.250;2022-07-29T05:58:35;19.70;99.90
10010;DHT22;5044;48.652;9.250;2022-07-29T06:01:03;19.70;99.90
10010;DHT22;5044;48.652;9.250;2022-07-29T06:03:31;19.90;99.90
10010;DHT22;5044;48.652;9.250;2022-07-29T06:05:57;20.00;99.90
10010;DHT22;5044;48.652;9.250;2022-07-29T06:08:24;20.00;99.90
10010;DHT22;5044;48.652;9.250;2022-07-29T06:10:53;19.90;99.90
10010;DHT22;5044;48.652;9.250;2022-07-29T06:13:19;19.70;99.90
10010;DHT22;5044;48.652;9.250;2022-07-29T06:15:47;19.90;99.90
10010;DHT22;5044;48.652;9.250;2022-07-29T06:18:13;19.90;99.90
10010;DHT22;5044;48.652;9.250;2022-07-29T06:20:41;20.00;99.90
10010;DHT22;5044;48.652;9.250;2022-07-29T06:23:07;20.10;99.90
10010;DHT22;5044;48.652;9.250;2022-07-29T06:25:35;20.10;99.90
10010;DHT22;5044;48.652;9.250;2022-07-29T06:28:03;20.40;99.90
10010;DHT22;5044;48.652;9.250;2022-07-29T06:30:30;20.60;99.90
10010;DHT22;5044;48.652;9.250;2022-07-29T06:32:57;20.80;99.90
10010;DHT22;5044;48.652;9.250;2022-07-29T06:35:25;21.00;99.90
10010;DHT22;5044;48.652;9.250;2022-07-29T06:37:52;21.30;99.90
10010;DHT22;5044;48.652;9.250;2022-07-29T06:40:19;21.40;99.90
10010;DHT22;5044;48.652;9.250;2022-07-29T06:43:05;21.50;99.90
10010;DHT22;5044;48.652;9.250;2022-07-29T06:45:33;21.80;99.90
10010;DHT22;5044;48.652;9.250;2022-07-29T06:48:01;21.90;99.90
10010;DHT22;5044;48.652;9.250;2022-07-29T06:50:27;22.10;99.90
10010;DHT22;5044;48.652;9.250;2022-07-29T06:52:54;22.40;99.90
10010;DHT22;5044;48.652;9.250;2022-07-29T06:55:22;22.50;99.90
10010;DHT22;5044;48.652;9.250;2022-07-29T06:57:48;22.80;99.90
10010;DHT22;5044;48.652;9.250;2022-07-29T07:00:17;22.70;99.90
10010;DHT22;5044;48.652;9.250;2022-07-29T07:02:44;22.90;99.90
10010;DHT22;5044;48.652;9.250;2022-07-29T07:05:11;23.20;99.90
10010;DHT22;5044;48.652;9.250;2022-07-29T07:07:38;23.40;99.90
10010;DHT22;5044;48.652;9.250;2022-07-29T07:10:05;23.00;99.90
10010;DHT22;5044;48.652;9.250;2022-07-29T07:12:32;23.10;99.90
10010;DHT22;5044;48.652;9.250;2022-07-29T07:14:59;23.00;99.90
10010;DHT22;5044;48.652;9.250;2022-07-29T07:17:27;22.90;99.90
10010;DHT22;5044;48.652;9.250;2022-07-29T07:19:54;23.00;99.90
10010;DHT22;5044;48.652;9.250;2022-07-29T07:22:21;23.40;99.90
10010;DHT22;5044;48.652;9.250;2022-07-29T07:24:48;23.50;99.90
10010;DHT22;5044;48.652;9.250;2022-07-29T07:27:15;23.70;99.90
10010;DHT22;5044;48.652;9.250;2022-07-29T07:29:42;23.80;99.90
10010;DHT22;5044;48.652;9.250;2022-07-29T07:32:08;23.80;99.90
10010;DHT22;5044;48.652;9.250;2022-07-29T07:34:37;23.70;99.90
10010;DHT22;5044;48.652;9.250;2022-07-29T07:37:03;23.80;99.90
10010;DHT22;5044;48.652;9.250;2022-07-29T07:39:30;24.00;99.80
10010;DHT22;5044;48.652;9.250;2022-07-29T07:41:57;24.20;99.90
10010;DHT22;5044;48.652;9.250;2022-07-29T07:44:24;24.40;99.40
10010;DHT22;5044;48.652;9.250;2022-07-29T07:46:51;24.60;99.90
10010;DHT22;5044;48.652;9.250;2022-07-29T07:49:18;24.70;97.90
10010;DHT22;5044;48.652;9.250;2022-07-29T07:51:46;24.70;99.70
10010;DHT22;5044;48.652;9.250;2022-07-29T07:54:13;24.80;99.90
10010;DHT22;5044;48.652;9.250;2022-07-29T07:56:39;25.10;97.90
10010;DHT22;5044;48.652;9.250;2022-07-29T07:59:06;25.10;97.50
10010;DHT22;5044;48.652;9.250;2022-07-29T08:01:33;25.10;97.10
10010;DHT22;5044;48.652;9.250;2022-07-29T08:04:00;24.90;99.40
10010;DHT22;5044;48.652;9.250;2022-07-29T08:06:27;25.10;99.80
10010;DHT22;5044;48.652;9.250;2022-07-29T08:08:55;25.30;99.90
10010;DHT22;5044;48.652;9.250;2022-07-29T08:11:22;25.20;99.90
10010;DHT22;5044;48.652;9.250;2022-07-29T08:13:49;25.70;98.30
10010;DHT22;5044;48.652;9.250;2022-07-29T08:16:15;26.10;96.60
10010;DHT22;5044;48.652;9.250;2022-07-29T08:18:44;26.30;96.20
10010;DHT22;5044;48.652;9.250;2022-07-29T08:21:11;26.40;96.00
10010;DHT22;5044;48.652;9.250;2022-07-29T08:23:38;26.30;96.10
10010;DHT22;5044;48.652;9.250;2022-07-29T08:26:12;26.50;99.30
10010;DHT22;5044;48.652;9.250;2022-07-29T08:28:41;26.70;95.70
10010;DHT22;5044;48.652;9.250;2022-07-29T08:31:10;26.70;93.50
10010;DHT22;5044;48.652;9.250;2022-07-29T08:33:37;27.10;95.80
10010;DHT22;5044;48.652;9.250;2022-07-29T08:36:04;27.20;95.20
10010;DHT22;5044;48.652;9.250;2022-07-29T08:38:32;27.60;93.50
10010;DHT22;5044;48.652;9.250;2022-07-29T08:41:00;27.70;94.80
10010;DHT22;5044;48.652;9.250;2022-07-29T08:43:29;27.90;93.30
10010;DHT22;5044;48.652;9.250;2022-07-29T08:45:56;28.20;90.70
10010;DHT22;5044;48.652;9.250;2022-07-29T08:48:23;28.30;92.00
10010;DHT22;5044;48.652;9.250;2022-07-29T08:50:54;28.60;90.10
10010;DHT22;5044;48.652;9.250;2022-07-29T08:53:24;28.60;91.30
10010;DHT22;5044;48.652;9.250;2022-07-29T08:55:53;28.50;89.50
10010;DHT22;5044;48.652;9.250;2022-07-29T08:58:21;28.90;89.10
10010;DHT22;5044;48.652;9.250;2022-07-29T09:00:51;29.00;90.40
10010;DHT22;5044;48.652;9.250;2022-07-29T09:03:20;29.00;88.20
10010;DHT22;5044;48.652;9.250;2022-07-29T09:05:47;28.90;89.60
10010;DHT22;5044;48.652;9.250;2022-07-29T09:08:16;29.40;87.40
10010;DHT22;5044;48.652;9.250;2022-07-29T09:10:43;29.70;85.60
10010;DHT22;5044;48.652;9.250;2022-07-29T09:13:10;30.00;82.70
10010;DHT22;5044;48.652;9.250;2022-07-29T09:15:37;29.70;72.30
10010;DHT22;5044;48.652;9.250;2022-07-29T09:18:05;29.50;83.30
10010;DHT22;5044;48.652;9.250;2022-07-29T09:20:32;29.80;87.20
10010;DHT22;5044;48.652;9.250;2022-07-29T09:23:13;30.40;79.50
10010;DHT22;5044;48.652;9.250;2022-07-29T09:25:41;30.30;80.20
10010;DHT22;5044;48.652;9.250;2022-07-29T09:28:09;30.50;80.10
10010;DHT22;5044;48.652;9.250;2022-07-29T09:30:49;30.30;78.50
10010;DHT22;5044;48.652;9.250;2022-07-29T09:33:18;30.10;78.30
10010;DHT22;5044;48.652;9.250;2022-07-29T09:35:45;30.70;76.60
10010;DHT22;5044;48.652;9.250;2022-07-29T09:38:12;31.30;72.30
10010;DHT22;5044;48.652;9.250;2022-07-29T09:40:40;30.80;70.80
10010;DHT22;5044;48.652;9.250;2022-07-29T09:43:10;30.80;76.20
10010;DHT22;5044;48.652;9.250;2022-07-29T09:45:37;31.00;71.80
10010;DHT22;5044;48.652;9.250;2022-07-29T09:48:14;30.50;71.20
10010;DHT22;5044;48.652;9.250;2022-07-29T09:50:43;30.60;74.50
10010;DHT22;5044;48.652;9.250;2022-07-29T09:53:10;31.00;71.90
10010;DHT22;5044;48.652;9.250;2022-07-29T09:55:47;30.40;73.10
10010;DHT22;5044;48.652;9.250;2022-07-29T09:58:16;30.40;67.90
10010;DHT22;5044;48.652;9.250;2022-07-29T10:00:43;30.50;74.70
10010;DHT22;5044;48.652;9.250;2022-07-29T10:03:10;30.80;73.50
10010;DHT22;5044;48.652;9.250;2022-07-29T10:05:38;30.70;69.40
10010;DHT22;5044;48.652;9.250;2022-07-29T10:08:10;30.60;71.60
10010;DHT22;5044;48.652;9.250;2022-07-29T10:10:39;31.10;67.30
10010;DHT22;5044;48.652;9.250;2022-07-29T10:13:08;31.50;66.20
10010;DHT22;5044;48.652;9.250;2022-07-29T10:15:37;31.40;68.00
10010;DHT22;5044;48.652;9.250;2022-07-29T10:18:06;31.70;64.10
10010;DHT22;5044;48.652;9.250;2022-07-29T10:20:33;31.50;63.90
10010;DHT22;5044;48.652;9.250;2022-07-29T10:23:00;31.20;66.90
10010;DHT22;5044;48.652;9.250;2022-07-29T10:25:29;31.40;65.30
10010;DHT22;5044;48.652;9.250;2022-07-29T10:27:57;31.40;66.90
10010;DHT22;5044;48.652;9.250;2022-07-29T10:30:25;31.80;64.90
10010;DHT22;5044;48.652;9.250;2022-07-29T10:33:20;32.40;67.30
10010;DHT22;5044;48.652;9.250;2022-07-29T10:36:04;32.60;59.30
10010;DHT22;5044;48.652;9.250;2022-07-29T10:38:52;32.70;58.60
10010;DHT22;5044;48.652;9.250;2022-07-29T10:41:43;32.10;61.80
10010;DHT22;5044;48.652;9.250;2022-07-29T10:44:17;32.20;58.90
10010;DHT22;5044;48.652;9.250;2022-07-29T10:46:45;32.50;59.40
10010;DHT22;5044;48.652;9.250;2022-07-29T10:49:14;32.50;61.30
10010;DHT22;5044;48.652;9.250;2022-07-29T10:51:54;32.10;59.50
10010;DHT22;5044;48.652;9.250;2022-07-29T10:54:40;32.20;59.50
10010;DHT22;5044;48.652;9.250;2022-07-29T10:57:26;32.50;59.70
10010;DHT22;5044;48.652;9.250;2022-07-29T11:00:30;32.30;58.90
10010;DHT22;5044;48.652;9.250;2022-07-29T11:02:57;32.20;59.10
10010;DHT22;5044;48.652;9.250;2022-07-29T11:05:26;31.80;60.20
10010;DHT22;5044;48.652;9.250;2022-07-29T11:08:22;31.30;63.60
10010;DHT22;5044;48.652;9.250;2022-07-29T11:10:52;31.50;64.50
10010;DHT22;5044;48.652;9.250;2022-07-29T11:13:46;31.60;61.20
10010;DHT22;5044;48.652;9.250;2022-07-29T11:16:16;31.10;60.20
10010;DHT22;5044;48.652;9.250;2022-07-29T11:19:20;30.80;61.90
10010;DHT22;5044;48.652;9.250;2022-07-29T11:21:47;30.30;58.40
10010;DHT22;5044;48.652;9.250;2022-07-29T11:24:17;29.60;59.80
10010;DHT22;5044;48.652;9.250;2022-07-29T11:26:44;28.30;62.00
10010;DHT22;5044;48.652;9.250;2022-07-29T11:29:19;27.70;69.20
10010;DHT22;5044;48.652;9.250;2022-07-29T11:31:49;26.80;82.90
10010;DHT22;5044;48.652;9.250;2022-07-29T11:34:24;26.30;89.40
10010;DHT22;5044;48.652;9.250;2022-07-29T11:37:18;25.10;93.40
10010;DHT22;5044;48.652;9.250;2022-07-29T11:39:47;24.60;91.50
10010;DHT22;5044;48.652;9.250;2022-07-29T11:42:40;23.80;92.50
10010;DHT22;5044;48.652;9.250;2022-07-29T11:45:10;24.00;86.60
10010;DHT22;5044;48.652;9.250;2022-07-29T11:47:41;24.10;89.10
10010;DHT22;5044;48.652;9.250;2022-07-29T11:50:11;23.90;90.80
10010;DHT22;5044;48.652;9.250;2022-07-29T11:52:39;23.70;93.80
10010;DHT22;5044;48.652;9.250;2022-07-29T11:55:12;23.70;93.00
10010;DHT22;5044;48.652;9.250;2022-07-29T11:57:46;23.90;93.20
10010;DHT22;5044;48.652;9.250;2022-07-29T12:00:24;24.40;92.90
10010;DHT22;5044;48.652;9.250;2022-07-29T12:02:51;24.80;92.30
10010;DHT22;5044;48.652;9.250;2022-07-29T12:05:19;25.30;91.50
10010;DHT22;5044;48.652;9.250;2022-07-29T12:07:47;25.10;90.90
10010;DHT22;5044;48.652;9.250;2022-07-29T12:10:14;24.90;92.10
10010;DHT22;5044;48.652;9.250;2022-07-29T12:12:41;24.90;93.20
10010;DHT22;5044;48.652;9.250;2022-07-29T12:15:16;24.80;90.00
10010;DHT22;5044;48.652;9.250;2022-07-29T12:17:47;24.60;90.90
10010;DHT22;5044;48.652;9.250;2022-07-29T12:20:23;24.40;91.40
10010;DHT22;5044;48.652;9.250;2022-07-29T12:22:50;24.00;93.60
10010;DHT22;5044;48.652;9.250;2022-07-29T12:25:19;23.70;94.10
10010;DHT22;5044;48.652;9.250;2022-07-29T12:27:57;23.70;96.10
10010;DHT22;5044;48.652;9.250;2022-07-29T12:30:41;23.60;97.80
10010;DHT22;5044;48.652;9.250;2022-07-29T12:33:18;23.40;98.30
10010;DHT22;5044;48.652;9.250;2022-07-29T12:35:47;23.30;99.50
10010;DHT22;5044;48.652;9.250;2022-07-29T12:38:16;23.20;99.70
10010;DHT22;5044;48.652;9.250;2022-07-29T12:40:44;23.00;99.90
10010;DHT22;5044;48.652;9.250;2022-07-29T12:43:13;22.90;99.90
10010;DHT22;5044;48.652;9.250;2022-07-29T12:45:42;22.70;99.90
10010;DHT22;5044;48.652;9.250;2022-07-29T12:48:10;22.00;99.90
10010;DHT22;5044;48.652;9.250;2022-07-29T12:50:56;21.80;99.90
10010;DHT22;5044;48.652;9.250;2022-07-29T12:53:23;22.10;99.90
10010;DHT22;5044;48.652;9.250;2022-07-29T12:55:52;22.70;99.90
10010;DHT22;5044;48.652;9.250;2022-07-29T12:58:30;23.00;99.40
10010;DHT22;5044;48.652;9.250;2022-07-29T13:01:03;23.00;98.30
10010;DHT22;5044;48.652;9.250;2022-07-29T13:03:45;22.80;99.90
10010;DHT22;5044;48.652;9.250;2022-07-29T13:06:38;22.70;99.90
10010;DHT22;5044;48.652;9.250;2022-07-29T13:09:08;22.80;99.90
10010;DHT22;5044;48.652;9.250;2022-07-29T13:11:38;23.00;99.90
10010;DHT22;5044;48.652;9.250;2022-07-29T13:14:06;22.90;99.90
10010;DHT22;5044;48.652;9.250;2022-07-29T13:16:34;22.40;99.90
10010;DHT22;5044;48.652;9.250;2022-07-29T13:19:09;22.40;99.90
10010;DHT22;5044;48.652;9.250;2022-07-29T13:21:39;22.60;99.90
10010;DHT22;5044;48.652;9.250;2022-07-29T13:24:07;22.90;99.90
10010;DHT22;5044;48.652;9.250;2022-07-29T13:26:34;23.00;99.90
10010;DHT22;5044;48.652;9.250;2022-07-29T13:29:05;22.90;99.90
10010;DHT22;5044;48.652;9.250;2022-07-29T13:31:32;22.80;99.90
10010;DHT22;5044;48.652;9.250;2022-07-29T13:33:59;22.80;99.90
10010;DHT22;5044;48.652;9.250;2022-07-29T13:36:26;22.90;99.90
10010;DHT22;5044;48.652;9.250;2022-07-29T13:38:55;22.50;99.90
10010;DHT22;5044;48.652;9.250;2022-07-29T13:41:23;22.60;99.90
10010;DHT22;5044;48.652;9.250;2022-07-29T13:43:50;22.80;99.90
10010;DHT22;5044;48.652;9.250;2022-07-29T13:46:17;22.80;99.90
10010;DHT22;5044;48.652;9.250;2022-07-29T13:48:44;22.90;99.90
10010;DHT22;5044;48.652;9.250;2022-07-29T13:51:11;23.00;99.90
10010;DHT22;5044;48.652;9.250;2022-07-29T13:53:38;23.20;99.90
10010;DHT22;5044;48.652;9.250;2022-07-29T13:56:07;23.30;99.90
10010;DHT22;5044;48.652;9.250;2022-07-29T13:58:34;23.20;99.90
10010;DHT22;5044;48.652;9.250;2022-07-29T14:01:03;23.30;99.90
10010;DHT22;5044;48.652;9.250;2022-07-29T14:03:30;23.20;99.90
10010;DHT22;5044;48.652;9.250;2022-07-29T14:05:57;23.30;99.90
10010;DHT22;5044;48.652;9.250;2022-07-29T14:08:25;23.30;99.90
10010;DHT22;5044;48.652;9.250;2022-07-29T14:10:52;23.40;99.90
10010;DHT22;5044;48.652;9.250;2022-07-29T14:13:20;23.50;99.90
10010;DHT22;5044;48.652;9.250;2022-07-29T14:15:47;23.60;99.90
10010;DHT22;5044;48.652;9.250;2022-07-29T14:18:14;23.60;99.90
10010;DHT22;5044;48.652;9.250;2022-07-29T14:20:41;23.50;99.90
10010;DHT22;5044;48.652;9.250;2022-07-29T14:23:08;23.50;99.90
10010;DHT22;5044;48.652;9.250;2022-07-29T14:25:35;23.60;99.90
10010;DHT22;5044;48.652;9.250;2022-07-29T14:28:02;23.60;99.90
10010;DHT22;5044;48.652;9.250;2022-07-29T14:30:30;23.60;99.90
10010;DHT22;5044;48.652;9.250;2022-07-29T14:32:57;23.80;99.90
10010;DHT22;5044;48.652;9.250;2022-07-29T14:35:24;23.80;99.90
10010;DHT22;5044;48.652;9.250;2022-07-29T14:37:51;23.90;99.90
10010;DHT22;5044;48.652;9.250;2022-07-29T14:40:18;23.90;99.90
10010;DHT22;5044;48.652;9.250;2022-07-29T14:42:45;23.90;99.90
10010;DHT22;5044;48.652;9.250;2022-07-29T14:45:11;23.90;99.90
10010;DHT22;5044;48.652;9.250;2022-07-29T14:47:40;23.80;99.40
10010;DHT22;5044;48.652;9.250;2022-07-29T14:50:08;23.90;98.90
10010;DHT22;5044;48.652;9.250;2022-07-29T14:52:35;23.80;99.90
10010;DHT22;5044;48.652;9.250;2022-07-29T14:55:02;23.90;98.30
10010;DHT22;5044;48.652;9.250;2022-07-29T14:57:29;23.90;99.90
10010;DHT22;5044;48.652;9.250;2022-07-29T14:59:56;23.80;99.90
10010;DHT22;5044;48.652;9.250;2022-07-29T15:02:23;23.80;99.90
10010;DHT22;5044;48.652;9.250;2022-07-29T15:04:51;24.00;99.90
10010;DHT22;5044;48.652;9.250;2022-07-29T15:07:18;23.70;99.90
10010;DHT22;5044;48.652;9.250;2022-07-29T15:09:47;23.90;99.90
10010;DHT22;5044;48.652;9.250;2022-07-29T15:12:14;23.90;99.90
10010;DHT22;5044;48.652;9.250;2022-07-29T15:14:41;24.00;99.20
10010;DHT22;5044;48.652;9.250;2022-07-29T15:17:10;24.10;99.90
10010;DHT22;5044;48.652;9.250;2022-07-29T15:19:37;24.10;99.90
10010;DHT22;5044;48.652;9.250;2022-07-29T15:22:06;24.00;99.90
10010;DHT22;5044;48.652;9.250;2022-07-29T15:24:33;24.00;99.90
10010;DHT22;5044;48.652;9.250;2022-07-29T15:26:59;24.00;99.20
10010;DHT22;5044;48.652;9.250;2022-07-29T15:29:27;24.00;99.90
10010;DHT22;5044;48.652;9.250;2022-07-29T15:31:54;24.00;98.90
10010;DHT22;5044;48.652;9.250;2022-07-29T15:34:21;24.00;99.90
10010;DHT22;5044;48.652;9.250;2022-07-29T15:36:49;24.10;98.80
10010;DHT22;5044;48.652;9.250;2022-07-29T15:39:17;24.00;99.90
10010;DHT22;5044;48.652;9.250;2022-07-29T15:41:44;24.00;99.90
10010;DHT22;5044;48.652;9.250;2022-07-29T15:44:11;23.80;99.90
10010;DHT22;5044;48.652;9.250;2022-07-29T15:46:38;23.90;99.20
10010;DHT22;5044;48.652;9.250;2022-07-29T15:49:22;24.00;99.90
10010;DHT22;5044;48.652;9.250;2022-07-29T15:51:55;23.90;99.90
10010;DHT22;5044;48.652;9.250;2022-07-29T15:54:24;23.90;99.10
10010;DHT22;5044;48.652;9.250;2022-07-29T15:56:51;23.90;97.60
10010;DHT22;5044;48.652;9.250;2022-07-29T15:59:18;24.00;97.10
10010;DHT22;5044;48.652;9.250;2022-07-29T16:01:45;23.90;99.40